• Join FlightAware (Why Join?)
  • Login
  • US Flag 
02:00AM EDT


 

Airport Tracker/Info


-or-


 

Live Flight TrackerFlight Track Log ✈ DAL6201 ✈ 24-Apr-2013 ✈ KPIT - KLGA

Flight Track Log - Related Links

Times and Time Zones

All times are in EDT time to prevent confusion due to time zone crossing. See the DAL6201 flight status page for this flight to view local times or setup timezone preferences in your user account.

Time Position Orientation Groundspeed Altitude Reporting Facility
EDT Latitude Longitude Course Direction KTS MPH feet Rate Location/Type
11:14PM 40.5097 -80.2764 347° North 166 191 3,000  Level FAA TRACON SMA TRACON (SMA)
11:14PM 40.5286 -80.2822 347° North 200 230 4,200 2,700 Climbing FAA TRACON SMA TRACON (SMA)
11:15PM 40.5472 -80.2853 353° North 226 260 4,800 1,260 Climbing FAA TRACON SMA TRACON (SMA)
11:15PM 40.5675 -80.2886 353° North 242 278 5,100 1,800 Climbing FAA TRACON SMA TRACON (SMA)
11:15PM 40.5931 -80.2836 North 254 292 6,000 2,820 Climbing FAA TRACON SMA TRACON (SMA)
11:16PM 40.6072 -80.2603 51° Northeast 270 311 7,000 3,060 Climbing FAA TRACON SMA TRACON (SMA)
11:16PM 40.6167 -80.2333 65° Northeast 262 302 8,000 2,700 Climbing FAA TRACON SMA TRACON (SMA)
11:16PM 40.6256 -80.1956 73° East 286 329 8,800 2,040 Climbing FAA TRACON SMA TRACON (SMA)
11:17PM 40.6281 -80.1617 84° East 300 345 9,400 1,800 Climbing FAA TRACON SMA TRACON (SMA)
11:17PM 40.6303 -80.1264 85° East 312 359 10,000 1,620 Climbing FAA TRACON SMA TRACON (SMA)
11:17PM 40.6331 -80.0833 85° East 336 387 10,500 1,680 Climbing FAA TRACON SMA TRACON (SMA)
11:18PM 40.6356 -80.0381 86° East 362 417 11,100 1,500 Climbing FAA TRACON SMA TRACON (SMA)
11:18PM 40.6389 -79.9992 84° East 377 434 11,500 1,260 Climbing FAA TRACON SMA TRACON (SMA)
11:18PM 40.6431 -79.9675 80° East 324 373 11,900 1,920 Climbing Cleveland Center
11:19PM 40.6525 -79.8222 85° East 367 422 14,000 2,040 Climbing Cleveland Center
11:20PM 40.6617 -79.6633 86° East 407 468 16,000 1,860 Climbing Cleveland Center
11:21PM 40.6728 -79.4992 85° East 431 496 17,800 1,800 Climbing Cleveland Center
11:22PM 40.6814 -79.3292 86° East 450 518 19,600 1,620 Climbing Cleveland Center
11:23PM 40.6919 -79.1564 85° East 462 532 21,100 1,500 Climbing Cleveland Center
11:24PM 40.7419 -78.9908 68° East 474 545 22,600 1,500 Climbing Cleveland Center
11:25PM 40.8617 -78.9003 30° Northeast 450 518 24,100 1,620 Climbing Cleveland Center
11:26PM 40.9853 -78.8089 29° Northeast 472 543 25,900 1,440 Climbing Cleveland Center
11:27PM 41.1117 -78.7669 14° North 467 537 27,000 720 Climbing Cleveland Center
11:28PM 41.2319 -78.7278 14° North 457 526 27,400 900 Climbing Cleveland Center
11:29PM 41.3542 -78.6689 20° North 452 520 28,900 480 Climbing Cleveland Center
11:31PM 41.3442 -78.3461 92° East 401 461 29,000  Climbing New York Center
11:32PM 41.2683 -78.2272 130° Southeast 395 455 29,000  Level New York Center
11:33PM 41.2086 -78.0828 119° Southeast 423 487 29,000  Level New York Center
11:34PM 41.1825 -77.8950 100° East 476 548 29,000  Level New York Center
11:35PM 41.1603 -77.7108 99° East 489 563 29,000  Level New York Center
11:36PM 41.1375 -77.5267 99° East 500 575 29,000  Level New York Center
11:37PM 41.1089 -77.3281 101° East 500 575 29,000 -480 Level New York Center
11:38PM 41.0836 -77.1439 100° East 500 575 28,100 -1,440 Descending New York Center
11:39PM 41.0603 -76.9572 99° East 505 581 26,100 -1,980 Descending New York Center
11:40PM 41.0361 -76.7789 100° East 505 581 24,200 -1,920 Descending New York Center
11:41PM 41.0092 -76.6089 102° East 489 563 22,300 -1,920 Descending New York Center
11:42PM 40.9706 -76.4572 109° East 465 535 20,400 -1,740 Descending New York Center
11:43PM 40.9344 -76.3003 107° East 448 516 19,000 -780 Descending New York Center
11:44PM 40.8956 -76.1461 108° East 437 503 18,900 -1,200 Descending New York Center
11:45PM 40.8661 -76.0147 106° East 432 497 16,600 -2,400 Descending New York Center
11:46PM 40.8303 -75.8775 109° East 420 483 14,200 -1,800 Descending New York Center
11:47PM 40.7950 -75.7269 107° East 393 452 13,000 -660 Descending New York Center
11:48PM 40.7611 -75.5931 108° East 393 452 13,000  Level New York Center
11:49PM 40.7269 -75.4564 108° East 393 452 13,000 -300 Level New York Center
11:50PM 40.6992 -75.3175 105° East 393 452 12,400 -840 Descending New York Center
11:51PM 40.6728 -75.1844 105° East 384 442 11,400 -1,020 Descending New York Center
11:52PM 40.6144 -75.0769 126° Southeast 367 422 10,400 -660 Descending New York Center
11:53PM 40.5636 -74.9808 125° Southeast 357 411 10,100 -180 Descending New York Center
11:54PM 40.5222 -74.8528 113° Southeast 362 417 10,100 -60 Level New York Center
11:55PM 40.4792 -74.7136 112° Southeast 375 432 10,000 -60 Descending New York Center
11:56PM 40.4414 -74.5914 112° Southeast 372 428 10,000 -120 Level New York Center
11:56PM 40.4333 -74.5500 104° East 331 381 9,900 -1,500 Descending New York TRACON
11:57PM 40.4500 -74.4500 78° East 323 372 8,200 -1,380 Descending New York TRACON
11:58PM 40.4833 -74.3333 69° East 314 361 7,200 -600 Descending New York TRACON
11:59PM 40.5167 -74.2333 66° East 272 313 7,000 -420 Descending New York TRACON
12:00AM 40.5333 -74.1333 78° East 273 314 6,400 -900 Descending New York TRACON
12:01AM 40.5833 -74.0667 45° Northeast 262 302 5,200 -1,200 Descending New York TRACON
12:02AM 40.6500 -74.0333 21° North 232 267 4,100 -600 Descending New York TRACON
12:03AM 40.7167 -74.0167 11° North 238 274 4,100  Level New York TRACON
12:04AM 40.7833 -74.0000 11° North 249 287 4,100 -60 Level New York TRACON
12:05AM 40.8333 -73.9500 37° Northeast 247 284 4,000  Descending New York TRACON
12:06AM 40.8833 -73.9167 27° Northeast 217 250 4,100  Climbing New York TRACON
12:07AM 40.9167 -73.8500 56° Northeast 229 264 4,100  Level New York TRACON
12:08AM 40.9000 -73.7833 108° East 232 267 4,100 -60 Level New York TRACON
12:09AM 40.9167 -73.7000 75° East 236 272 4,000  Descending New York TRACON
12:10AM 40.9167 -73.6167 90° East 227 261 4,100  Climbing New York TRACON
12:11AM 40.9500 -73.5667 49° Northeast 217 250 4,000  Descending New York TRACON
12:12AM 41.0000 -73.5333 27° Northeast 198 228 4,100  Climbing New York TRACON
12:13AM 41.0500 -73.5500 346° North 186 214 4,100  Level New York TRACON
12:14AM 41.0833 -73.5833 323° Northwest 182 209 4,100 -540 Level New York TRACON
12:15AM 41.0667 -73.6167 236° Southwest 140 161 3,100 -540 Descending New York TRACON
12:16AM 41.0333 -73.6500 217° Southwest 163 188 3,100  Level New York TRACON
12:17AM 40.9833 -73.6833 207° Southwest 166 191 3,100  Level New York TRACON